Tiempo atmosférico en la estación meteorológica de Tortosa, Tarragona (44 m.)



Fecha
DESCASC
Temp. máxima en grados centígrados (hora)
DESCASC
Temp. mínima en grados centígrados (hora)
DESCASC
Temp. media en grados centígrados
DESCASC
Racha de viento máxima en m/sg (hora)
DESCASC
Velocidad máxima media en intervalos de 10 minutos(hora)
DESCASC
Precipitaciones diarias en mm
DESCASC
Precipitaciones de 00:00 a 06:00 en mm
DESCASC
Precipitaciones de 06:00 a 12:00 en mm
DESCASC
Precipitaciones de 12:00 a 18:00 en mm
DESCASC
Precipitaciones de 18:00 a 24:00 en mm
DESCASC

Gráficas

Temp. máximas Temp. mínimas Temp. medias Precipitaciones Rachas de viento máximas Velocidades máximas media en intervalos de 10 minutos

Datos horarios

Fecha y hora oficial Temperatura (ºC) Velocidad del viento (km/h) Dirección del viento Racha (km/h) Dirección de racha Precipitación (mm) Presión (hPa) Tendencia (hPa) Humedad (%)
2021-03-05 23:00:00 9.7 0 Calma 5 Norte 0 1015.5 1.6 91
2021-03-05 22:00:00 10.5 3 Norte 6 Sudeste 0 1015 1.7 89
2021-03-05 21:00:00 11.4 4 Sur 8 Sur 0 1014.4 1.7 85
2021-03-05 20:00:00 12.2 5 Sudeste 8 Sudeste 0 1013.9 1.6 81
2021-03-05 19:00:00 13.1 6 Sudeste 19 Sudeste 0 1013.3 1.3 76
2021-03-05 18:00:00 14.6 9 Sudeste 21 Sur 0 1012.7 0.8 71
2021-03-05 17:00:00 16.8 11 Sudeste 22 Sudeste 0 1012.3 0 66
2021-03-05 16:00:00 18.9 11 Sudeste 22 Sur 0 1012 -1.1 62
2021-03-05 15:00:00 18.8 6 Este 16 Sudeste 0 1011.9 -1.5 59
2021-03-05 14:00:00 19.4 6 Norte 19 Norte 0 1012.3 -1.5 53
2021-03-05 13:00:00 17.8 5 Nordeste 10 Nordeste 0 1013.1 -0.7 57
2021-03-05 12:00:00 16 2 Oeste 9 Noroeste 0 1013.4 -0.2 67
2021-03-05 11:00:00 12.8 3 Este 6 Este 0 1013.8 0.3 86
2021-03-05 10:00:00 9.9 2 Norte 9 Norte 0 1013.8 0.3 94
2021-03-05 09:00:00 8.3 4 Norte 8 Norte 0 1013.6 0.4 99
2021-03-05 08:00:00 7.1 0 Calma 5 Noroeste 0 1013.5 0.3 99
2021-03-05 07:00:00 7.4 0 Calma 10 Noroeste 0 1013.5 0 100
2021-03-05 06:00:00 7.1 5 Norte 11 Norte 0 1013.2 -1 100
2021-03-05 05:00:00 7.3 4 Norte 13 Norte 0 1013.2 -1.4 99
2021-03-05 04:00:00 7.3 5 Norte 10 Noroeste 0 1013.5 -1.4 97
2021-03-05 03:00:00 8.1 4 Norte 5 Norte 0 1014.2 -1.2 97
2021-03-05 02:00:00 8.8 5 Norte 8 Noroeste 0 1014.6 -- 98
2021-03-05 01:00:00 9.1 5 Noroeste 7 Noroeste 0 1014.9 -- 98
2021-03-05 00:00:00 10 4 Este 7 Sudoeste 0 1015.4 -- 95
2021-03-04 23:00:00 10.1 4 Sur 8 Sur 0 1015.5 -- 96
2021-03-04 22:00:00 10.6 5 Sur 6 Sur 0 1015.1 -- 93
2021-03-04 21:00:00 11.3 4 Sur 6 Sudeste 0 1015.2 -- 92
2021-03-04 20:00:00 11.7 5 Sudeste 12 Sur 0 1015.3 -- 88
2021-03-04 19:00:00 12.9 6 Sur 19 Sur 0 1015.3 -- 80
2021-03-04 18:00:00 14.1 12 Sudeste 21 Sudeste 0 1015.2 -- 76
2021-03-04 17:00:00 14.9 9 Sudeste 20 Sudeste 0 1015.4 -- 72
2021-03-04 16:00:00 16 8 Sudeste 17 Este 0 1015.9 -- 66
2021-03-04 15:00:00 16.5 8 Sudeste 18 Sur 0 1016.4 -- 63
2021-03-04 14:00:00 17.1 10 Sudeste 17 Sur 0 1017.1 -- 60
2021-03-04 13:00:00 16.5 11 Este 19 Este 0 1018.1 -- 65
2021-03-04 12:00:00 15.9 3 Sur 10 Sur 0 1018.7 -- 70
2021-03-04 11:00:00 15.1 4 Sur 8 Sudoeste 0 1019.4 -- 77
2021-03-04 10:00:00 12.1 2 Sur 4 Sudoeste 0 1019.9 -- 92
2021-03-04 09:00:00 9.8 0 Calma 4 Nordeste 0 1019.9 -- 99
2021-03-04 08:00:00 8.9 0 Calma 3 Sudeste 0 1019.8 -- 99
2021-03-04 07:00:00 8.9 0 Calma 5 Norte 0 1020 -- 100
2021-03-04 06:00:00 9.1 3 Nordeste 4 Norte 0 1020.2 -- 99
2021-03-04 05:00:00 9.1 0 Calma 3 Nordeste 0 1020.6 -- 99
2021-03-04 04:00:00 9.2 3 Norte 4 Norte 0 1021.1 -- 98
2021-03-04 03:00:00 9.8 3 Sur 5 Este 0 1022 -- 99
2021-03-04 02:00:00 9.8 3 Nordeste 5 Norte 0 1022.6 -- 99
2021-03-04 01:00:00 9.8 2 Noroeste 6 Sudoeste 0 1023 -- 98
2021-03-04 00:00:00 10.4 6 Sudoeste 11 Sudoeste 0 1023.5 -- 98
2021-03-03 23:00:00 10.7 8 Sudoeste 11 Sudoeste 0 1023.8 -- 97
2021-03-03 22:00:00 11.2 5 Sur 12 Sudoeste 0 1023.7 -- 92
2021-03-03 21:00:00 11.7 10 Sudoeste 12 Oeste 0 1023.6 -- 92
2021-03-03 20:00:00 12.2 6 Sudoeste 12 Sudeste 0 1023.6 -- 89
2021-03-03 19:00:00 13.1 8 Sudeste 13 Sudeste 0 1023.6 -- 86
2021-03-03 18:00:00 14.4 8 Sudeste 17 Este 0 1023.5 -- 79
2021-03-03 17:00:00 15.7 7 Sudeste 18 Sudeste 0 1023.5 -- 75
2021-03-03 16:00:00 16.9 9 Sudeste 19 Sur 0 1023.7 -- 69
2021-03-03 15:00:00 17 8 Sur 15 Sur 0 1024 -- 69
2021-03-03 14:00:00 16 6 Sur 10 Sur 0 1024.6 -- 72
2021-03-03 13:00:00 15.5 6 Sur 10 Sur 0 1025.4 -- 76
2021-03-03 12:00:00 14.2 3 Sur 5 Sur 0 1025.9 -- 85
2021-03-03 11:00:00 12.5 0 Calma 5 Nordeste 0 1026.3 -- 91
2021-03-03 10:00:00 11.4 0 Calma 6 Noroeste 0 1026.5 -- 94
2021-03-03 09:00:00 10 3 Norte 7 Noroeste 0 1026.2 -- 96
2021-03-03 08:00:00 9.3 4 Norte 6 Noroeste 0 1025.7 -- 97
2021-03-03 07:00:00 9.7 4 Norte 10 Norte 0 1025.3 -- 96
2021-03-03 06:00:00 10 7 Noroeste 9 Noroeste 0 1025.4 -- 95
2021-03-03 05:00:00 10.3 4 Nordeste 6 Nordeste 0 1025.4 -0.8 95
2021-03-03 04:00:00 10.7 2 Norte 5 Noroeste 0 1025.4 -- 93
2021-03-03 03:00:00 10.9 3 Nordeste 6 Oeste 0 1025.8 -- 93
2021-03-03 02:00:00 11.6 3 Noroeste 10 Sudoeste 0 1026.2 -- 90
2021-03-03 01:00:00 12.2 4 Sudoeste 11 Nordeste 0 1026.4 -- 86
2021-03-03 00:00:00 12.2 5 Norte 9 Norte 0 1026.4 -- 90
2021-03-02 23:00:00 12.4 4 Oeste 12 Oeste 0 1026.3 -- 89
2021-03-02 22:00:00 12.3 4 Sudoeste 9 Oeste 0 1026 -- 91
2021-03-02 21:00:00 12.4 5 Noroeste 12 Norte 0 1025.7 -- 92
2021-03-02 20:00:00 12 4 Noroeste 10 Oeste 0 1025.4 -- 97
2021-03-02 19:00:00 12.1 3 Sudeste 7 Este 0 1025.1 -- 97
2021-03-02 18:00:00 11.8 5 Noroeste 9 Oeste 0 1024.5 -- 98
2021-03-02 17:00:00 11.8 4 Noroeste 6 Nordeste 0.2 1024.3 -- 96
2021-03-02 16:00:00 12.1 2 Noroeste 10 Oeste 0.2 1024.3 -- 95
2021-03-02 15:00:00 12.2 8 Oeste 12 Oeste 0 1024.4 -- 91
2021-03-02 14:00:00 12.8 4 Oeste 11 Oeste 0 1024.3 -- 85
2021-03-02 13:00:00 12.8 6 Noroeste 10 Noroeste 0 1024.6 -- 81
2021-03-02 12:00:00 12.6 6 Noroeste 11 Noroeste 0 1024.6 -- 84
2021-03-02 11:00:00 12.7 3 Noroeste 11 Nordeste 0 1024.6 -- 79
2021-03-02 10:00:00 12.6 4 Nordeste 11 Nordeste 0 1024.2 -- 80
2021-03-02 09:00:00 12.5 6 Este 17 Este 0 1023.8 -- 77
2021-03-02 08:00:00 12.8 5 Nordeste 17 Nordeste 0 1022.7 -- 79
2021-03-02 07:00:00 12.3 3 Nordeste 12 Nordeste 0 1022.1 -- 81
2021-03-02 06:00:00 11.8 4 Norte 19 Nordeste 0 1021.5 -- 85
2021-03-02 05:00:00 11.7 4 Nordeste 11 Nordeste 0 1021.2 -- 88
2021-03-02 04:00:00 11.9 3 Noroeste 8 Noroeste 0 1021.1 -- 85
2021-03-02 03:00:00 12.5 5 Este 11 Este 0 1021.8 -- 81
2021-03-02 02:00:00 12.4 2 Este 12 Sudeste 0 1022 -- 82
2021-03-02 01:00:00 12.2 5 Norte 9 Sudeste 0 1021.5 -- 83
2021-03-02 00:00:00 12.2 3 Sur 11 Este 0 1021.9 -- 81
2021-03-01 23:00:00 12.4 6 Este 17 Este 0 1021.7 -- 81
2021-03-01 22:00:00 12.3 5 Nordeste 17 Este 0 1021.4 -- 81
2021-03-01 21:00:00 12.6 4 Nordeste 15 Este 0 1021.2 -- 80
2021-03-01 20:00:00 12.7 10 Este 20 Este 0 1021.2 -- 84
2021-03-01 19:00:00 12.4 8 Este 22 Nordeste 0 1020.9 -- 86
2021-03-01 18:00:00 12.6 4 Sur 21 Este 0 1020.2 -- 82
2021-03-01 17:00:00 12.7 5 Sudeste 12 Sudeste 0 1020 -- 82
2021-03-01 16:00:00 12.5 2 Noroeste 7 Noroeste 0 1020.1 -- 87
2021-03-01 15:00:00 11.9 4 Norte 18 Este 0 1020.2 -- 91
2021-03-01 14:00:00 12.5 4 Oeste 18 Norte 0.2 1020.5 -- 92
2021-03-01 13:00:00 12.3 2 Sur 8 Sudoeste 0 1021 -- 87
2021-03-01 12:00:00 12 4 Oeste 17 Este 0 1021.4 -- 88
2021-03-01 11:00:00 12.6 9 Este 23 Este 0 1021.3 -- 80
2021-03-01 10:00:00 12.8 4 Sudoeste 20 Este 0 1021 -- 80
2021-03-01 09:00:00 12 4 Nordeste 14 Este 0 1021 -- 87
2021-03-01 08:00:00 11.7 3 Oeste 10 Sudeste 0 1020.6 -- 86
2021-03-01 07:00:00 11.6 3 Este 8 Sudeste 0 1020.3 -- 87
2021-03-01 06:00:00 11.5 2 Oeste 9 Sudoeste 0 1020.2 -- 87
2021-03-01 05:00:00 11.2 3 Oeste 12 Sudoeste 0 1020.1 -- 89
2021-03-01 04:00:00 10.6 9 Sudoeste 12 Sudoeste 0 1020.1 -- 92
2021-03-01 03:00:00 10.7 4 Sudoeste 13 Sur 0 1020.6 -- 91
2021-03-01 02:00:00 11.2 6 Sudoeste 10 Sudoeste 0 1020.6 -- 90
2021-03-01 01:00:00 11.2 4 Sudoeste 12 Sudoeste 0 1020.7 -- 88
2021-03-01 00:00:00 11.7 6 Sudoeste 12 Oeste 0 1020.7 -- 86
2021-02-28 23:00:00 11.3 5 Sudoeste 12 Sudoeste 0 1020.9 -- 87
2021-02-28 22:00:00 11.3 5 Oeste 13 Oeste 0 1020.7 -- 87
2021-02-28 21:00:00 11.1 8 Sudoeste 10 Oeste 0 1020.5 -- 87
2021-02-28 20:00:00 11.5 5 Oeste 7 Sur 0 1020.4 -- 85
2021-02-28 19:00:00 12 4 Sur 22 Este 0 1020.1 -- 81
2021-02-28 18:00:00 12.9 9 Este 19 Este 0 1019.8 -- 75
2021-02-28 17:00:00 13.3 9 Este 22 Este 0 1019.7 -- 75
2021-02-28 16:00:00 13.4 12 Sudeste 25 Sudeste 0 1019.7 -- 70
2021-02-28 15:00:00 13.4 14 Sudeste 28 Sudeste 0 1019.8 -- 71
2021-02-28 14:00:00 13.9 11 Sudeste 28 Sur 0 1020 -- 82
2021-02-28 13:00:00 13 12 Sur 30 Sudeste 0 1020.5 -- 87
2021-02-28 12:00:00 13.3 10 Sur 16 Sur 0 1020.6 -- 93
2021-02-28 11:00:00 12 7 Sudoeste 12 Sudoeste 0 1020.4 -- 97
2021-02-28 10:00:00 11.4 5 Sur 10 Sur 1.2 1020.2 -- 98
2021-02-28 09:00:00 10.9 3 Sur 8 Sur 0.8 1019.9 -- 98
2021-02-28 08:00:00 10.6 4 Sudeste 6 Nordeste 1.4 1019.5 -- 97
2021-02-28 07:00:00 10.7 3 Norte 5 Noroeste 0 1019.2 -- 92
2021-02-28 06:00:00 10.8 0 Calma 4 Oeste 0 1019.2 -- 94
2021-02-28 05:00:00 10.6 3 Norte 6 Nordeste 0 1019 -- 92
2021-02-28 04:00:00 11 2 Sur 4 Sur 0 1019.1 -- 93
2021-02-28 03:00:00 11.1 0 Calma 9 Sudoeste 0 1019.5 -- 93
2021-02-28 02:00:00 11.5 6 Sudoeste 11 Sudoeste 0 1019.8 -- 91
2021-02-28 01:00:00 11.6 4 Oeste 9 Oeste 0 1019.9 -- 87
2021-02-28 00:00:00 11.9 2 Noroeste 7 Sur 0 1019.8 -- 84
2021-02-27 23:00:00 12.2 3 Sur 12 Sur 0 1019.9 -- 82
2021-02-27 22:00:00 12.4 5 Sur 8 Sur 0 1019.5 -- 82
2021-02-27 21:00:00 12.5 4 Sudeste 10 Sur 0 1019.2 -- 80
2021-02-27 20:00:00 13 4 Sudeste 12 Sudeste 0 1019.1 -- 74
2021-02-27 19:00:00 14.7 8 Sudeste 23 Sur 0 1018.7 -- 69
2021-02-27 18:00:00 17 9 Sur 24 Sur 0 1018.1 -- 60
2021-02-27 17:00:00 18.8 11 Sudeste 23 Sudeste 0 1017.9 -- 55
2021-02-27 16:00:00 20 3 Este 13 Este 0 1018.2 -- 47
2021-02-27 15:00:00 20.6 4 Nordeste 23 Norte 0 1018.7 -- 44
2021-02-27 14:00:00 20.2 12 Norte 30 Norte 0 1019.8 -- 46
2021-02-27 13:00:00 20.1 13 Norte 27 Norte 0 1020.7 -- 47
2021-02-27 12:00:00 19.2 11 Nordeste 25 Norte 0 1021.3 -- 50
2021-02-27 11:00:00 17 13 Norte 29 Norte 0 1021.5 -- 59
2021-02-27 10:00:00 13.7 13 Norte 27 Norte 0 1021.7 -- 73
2021-02-27 09:00:00 10.7 10 Norte 26 Norte 0 1021.6 -- 88
2021-02-27 08:00:00 9.2 14 Norte 26 Norte 0 1021.6 -- 94
2021-02-27 07:00:00 7.3 10 Norte 18 Norte 0 1021.5 -- 100
2021-02-27 06:00:00 6.1 3 Norte 6 Sudoeste 0 1021.7 -- 100
2021-02-27 05:00:00 5.5 3 Sudeste 14 Norte 0 1022 -- 97
2021-02-27 04:00:00 6.5 6 Norte 10 Norte 0 1022.1 -- 98
2021-02-27 03:00:00 6.8 5 Noroeste 7 Noroeste 0 1022.9 -- 99
2021-02-27 02:00:00 7.5 3 Norte 4 Norte 0 1023.4 -- 98
2021-02-27 01:00:00 8 2 Este 4 Nordeste 0 1023.6 -- 95
2021-02-27 00:00:00 8.6 0 Calma 4 Nordeste 0 1023.9 -- 96
2021-02-26 23:00:00 9.2 3 Nordeste 4 Nordeste 0 1024.1 -- 94
2021-02-26 22:00:00 10.1 2 Oeste 4 Oeste 0 1023.9 -- 92
2021-02-26 21:00:00 11 2 Nordeste 7 Sudoeste 0 1023.8 -- 89
2021-02-26 20:00:00 11.9 4 Sudoeste 8 Sudoeste 0 1023.8 -- 86
2021-02-26 19:00:00 13.2 5 Sur 15 Sur 0 1023.7 -- 81
2021-02-26 18:00:00 15.1 7 Sudeste 14 Sudeste 0 1023.6 -- 73
2021-02-26 17:00:00 17.3 5 Sur 14 Sudeste 0 1023.7 -- 63
2021-02-26 16:00:00 18 5 Sur 15 Sudoeste 0 1024 -- 62
2021-02-26 15:00:00 17.5 8 Sur 14 Sudeste 0 1024.5 -- 62
2021-02-26 14:00:00 16.6 6 Sudoeste 14 Sur 0 1025.3 -- 65
2021-02-26 13:00:00 15.1 5 Sudoeste 9 Sur 0 1026.3 -- 72
2021-02-26 12:00:00 14 3 Sudoeste 5 Sudoeste 0 1026.9 -- 78
2021-02-26 11:00:00 13.5 2 Norte 6 Norte 0 1026.8 -- 82
2021-02-26 10:00:00 12.2 2 Noroeste 4 Norte 0 1026.8 -- 88
2021-02-26 09:00:00 11.2 3 Norte 6 Norte 0 1026.5 -- 94
2021-02-26 08:00:00 10.8 4 Norte 6 Norte 0 1026.1 -- 95
2021-02-26 07:00:00 10.3 3 Norte 6 Noroeste 0 1026.1 -- 96
2021-02-26 06:00:00 10 2 Norte 3 Norte 0 1025.9 -- 96
2021-02-26 05:00:00 9.8 0 Calma 5 Noroeste 0 1025.8 -- 96
2021-02-26 04:00:00 9.7 2 Norte 9 Noroeste 0 1026 -- 98
2021-02-26 03:00:00 9.4 5 Norte 7 Norte 0 1026.1 -- 96
2021-02-26 02:00:00 10 0 Calma 3 Sudoeste 0 1026.4 -- 96
2021-02-26 01:00:00 10.8 4 Sudoeste 7 Sudoeste 0 1026.3 -- 96
2021-02-26 00:00:00 11.5 4 Sudoeste 6 Sudoeste 0 1026.4 -- 92
2021-02-25 23:00:00 12.2 3 Sudoeste 10 Sudeste 0 1026.4 -- 89
2021-02-25 22:00:00 12.4 4 Sur 8 Sur 0 1026.2 -- 89
2021-02-25 21:00:00 12.8 4 Sudeste 11 Sudeste 0 1025.7 -- 86
2021-02-25 20:00:00 13.5 6 Sudeste 10 Sudeste 0 1025.4 -- 85
2021-02-25 19:00:00 13.9 6 Sudeste 16 Sudeste 0 1024.8 -- 82
2021-02-25 18:00:00 15.2 11 Sudeste 19 Sudeste 0 1024.4 -- 74
2021-02-25 17:00:00 16.1 11 Sudeste 22 Sudeste 0 1024.2 -- 69
2021-02-25 16:00:00 16.6 11 Sudeste 26 Sudeste 0 1024.4 -- 66
2021-02-25 15:00:00 17.2 10 Sudeste 28 Sudeste 0 1024.7 -- 63
2021-02-25 14:00:00 18.3 13 Sudeste 28 Sudeste 0 1025.1 -- 62
2021-02-25 13:00:00 17.7 13 Sudeste 29 Sudeste 0 1026 -- 65
2021-02-25 12:00:00 17 12 Sudeste 26 Sudeste 0 1026.4 -- 70
2021-02-25 11:00:00 15.7 12 Sudeste 23 Sudeste 0 1026.7 -- 76
2021-02-25 10:00:00 12.7 8 Sur 13 Sur 0 1026.8 -- 90
2021-02-25 09:00:00 10.6 7 Sudoeste 13 Sudoeste 0 1026.6 -- 98
2021-02-25 08:00:00 9.8 8 Sudoeste 11 Sudoeste 0 1026 -- 99
2021-02-25 07:00:00 10.2 6 Sur 14 Sudeste 0 1025.7 -- 99
2021-02-25 06:00:00 10.6 8 Sudeste 16 Sudeste 0 1025.6 -- 99
2021-02-25 05:00:00 11 7 Sudeste 18 Sudeste 0 1025.7 -- 99
2021-02-25 04:00:00 11 8 Sur 14 Sur 0 1026 -- 98
2021-02-25 03:00:00 11.4 9 Sur 16 Sudeste 0 1026.3 -- 99
2021-02-25 02:00:00 11.4 9 Sudeste 18 Sudeste 0 1026.8 -- 97
2021-02-25 01:00:00 11.3 7 Sur 14 Sur 0 1027.2 -- 97
2021-02-25 00:00:00 11.4 8 Sur 14 Sudeste 0 1027.3 -- 96
2021-02-24 23:00:00 11.8 7 Sudeste 13 Sudeste 0 1027.6 -- 94
2021-02-24 22:00:00 11.9 7 Sur 14 Sur 0 1027.6 -- 95
2021-02-24 21:00:00 11.7 8 Sur 17 Sur 0 1027.3 -- 95
2021-02-24 20:00:00 11.6 7 Sur 12 Sur 0 1027.2 -- 91
2021-02-24 19:00:00 13 6 Sur 14 Sudeste 0 1027 -- 84
2021-02-24 18:00:00 14.6 6 Sudeste 20 Sudeste 0 1026.9 -- 77
2021-02-24 17:00:00 15.9 10 Sudeste 20 Sudeste 0 1027.3 -- 69
2021-02-24 16:00:00 16.8 10 Sudeste 23 Sudeste 0 1027.6 -- 67
2021-02-24 15:00:00 17.6 8 Sudeste 22 Sur 0 1028.1 -- 64
2021-02-24 14:00:00 18.5 12 Sur 19 Sur 0 1028.8 -- 63
2021-02-24 13:00:00 16.7 7 Sudeste 15 Este 0 1029.9 -- 68
2021-02-24 12:00:00 15.4 10 Este 15 Este 0 1030.5 -- 71
2021-02-24 11:00:00 14.9 3 Sur 8 Sudoeste 0 1030.7 -- 78
2021-02-24 10:00:00 14.1 5 Sur 10 Sudoeste 0 1030.8 -- 86
2021-02-24 09:00:00 13 4 Sudoeste 9 Sudoeste 0 1030.7 -- 93
2021-02-24 08:00:00 12.3 3 Sur 6 Sur 0 1030.4 -- 96
2021-02-24 07:00:00 12 0 Calma 7 Sudoeste 0 1030.2 -0.2 97
2021-02-24 06:00:00 12 2 Sudoeste 5 Sudoeste 0 1030.1 -0.8 95
2021-02-24 05:00:00 12.2 2 Sur 11 Sudoeste 0 1030.1 -- 94
2021-02-24 04:00:00 11.7 6 Sudoeste 9 Sudoeste 0 1030.4 -- 95
2021-02-24 03:00:00 11.6 0 Calma 4 Nordeste 0 1030.9 -- 91
2021-02-24 02:00:00 11.8 5 Oeste 8 Oeste 0 1031.4 -0.3 92
2021-02-24 01:00:00 11.5 2 Sudoeste 7 Este 0 1031.7 -- 91
2021-02-24 00:00:00 11.8 3 Sudeste 5 Norte 0 1031.7 -- 90
2021-02-23 23:00:00 11.6 4 Norte 6 Norte 0 1031.7 -- 90
2021-02-23 22:00:00 12 6 Oeste 10 Oeste 0 1031.7 -- 91
2021-02-23 21:00:00 12 6 Sur 12 Sur 0 1031.5 2.4 87
2021-02-23 20:00:00 12.9 8 Sur 14 Sur 0 1030.8 -- 82
2021-02-23 19:00:00 14.3 7 Sudoeste 14 Sur 0 1029.8 -- 77
2021-02-23 18:00:00 16.6 8 Sur 15 Sur 0 1029.1 -- 69
2021-02-23 17:00:00 18.5 6 Sudeste 18 Sudeste 0 1028.7 -- 62
2021-02-23 16:00:00 19.6 6 Sudeste 14 Sudeste 0 1028.7 -- 58
2021-02-23 15:00:00 19.1 4 Este 11 Este 0 1028.8 -- 52
2021-02-23 14:00:00 18.8 5 Norte 14 Norte 0 1029 -- 57
2021-02-23 13:00:00 17.6 6 Norte 18 Norte 0 1029.8 -- 58
2021-02-23 12:00:00 13.7 10 Norte 21 Norte 0 1030.1 -- 68
2021-02-23 11:00:00 12.9 12 Norte 23 Norte 0 1029.7 -- 69
2021-02-23 10:00:00 11.7 10 Norte 25 Norte 0 1029 -- 76
2021-02-23 09:00:00 9.7 11 Norte 22 Norte 0 1028.3 -- 82
2021-02-23 08:00:00 8.5 9 Norte 21 Norte 0 1027.3 -- 85
2021-02-23 07:00:00 7.4 10 Norte 18 Norte 0 1026.5 -- 88
2021-02-23 06:00:00 7.1 11 Norte 19 Noroeste 0 1025.8 -- 89
2021-02-23 05:00:00 7.3 12 Norte 18 Noroeste 0 1025.3 -- 89
2021-02-23 04:00:00 7.4 10 Norte 19 Noroeste 0 1024.4 -- 88
2021-02-23 03:00:00 7.6 10 Norte 22 Noroeste 0 1024.1 -- 86
2021-02-23 02:00:00 7.8 10 Noroeste 18 Norte 0 1023.6 -- 85
2021-02-23 01:00:00 8.4 9 Norte 18 Norte 0 1022.9 -- 83
2021-02-23 00:00:00 8.5 8 Norte 14 Norte 0 1022.3 -- 84
2021-02-22 23:00:00 8.8 9 Norte 19 Norte 0 1021.5 -- 84
2021-02-22 22:00:00 9 9 Norte 18 Nordeste 0 1020.9 -- 84
2021-02-22 21:00:00 9.4 8 Norte 19 Norte 0 1019.9 -- 83
2021-02-22 20:00:00 9.7 9 Norte 19 Norte 0 1019 -- 82
2021-02-22 19:00:00 10.6 7 Norte 22 Norte 0 1017.5 -- 78
2021-02-22 18:00:00 12 9 Norte 21 Norte 0 1015.9 -- 72
2021-02-22 17:00:00 14.2 10 Norte 24 Norte 0 1015 -- 64
2021-02-22 16:00:00 13.6 11 Norte 29 Nordeste 0 1014.1 -- 68
2021-02-22 15:00:00 12.7 13 Norte 26 Norte 0 1013.4 -- 71
2021-02-22 14:00:00 12.7 13 Norte 27 Norte 0 1012.6 -- 72
2021-02-22 13:00:00 14.5 12 Norte 24 Norte 0 1012.3 -- 66
2021-02-22 12:00:00 13.9 13 Norte 28 Norte 0 1012 -- 72
2021-02-22 11:00:00 13.5 3 Nordeste 8 Nordeste 0 1011.2 -- 81
2021-02-22 10:00:00 12.8 3 Este 17 Sudeste 0 1010.2 -- 86
2021-02-22 09:00:00 12.8 4 Sudeste 7 Sudeste 0 1008.5 -- 91
2021-02-22 08:00:00 12.9 4 Sur 11 Sudeste 0 1007.3 -- 91
2021-02-22 07:00:00 13 3 Nordeste 14 Sudeste 0 1006.4 2.1 92
2021-02-22 06:00:00 13.2 7 Sudeste 16 Sudeste 0 1006.1 -- 93
2021-02-22 05:00:00 13.3 8 Sudeste 33 Sudeste 0 1004.7 -- 93
2021-02-22 04:00:00 14 17 Sudeste 57 Este 0 1004.3 -- 91
2021-02-22 03:00:00 14.3 40 Este 76 Este 0 1004 -- 87
2021-02-22 02:00:00 14.7 24 Este 58 Este 0 1002.2 -- 81
2021-02-22 01:00:00 14.3 22 Este 51 Nordeste 0 1002.9 -- 85
2021-02-22 00:00:00 14 10 Nordeste 48 Nordeste 0.2 1004.5 -- 86
2021-02-21 23:00:00 14.3 12 Norte 49 Nordeste 0 1004.2 -- 83
2021-02-21 22:00:00 14.5 13 Nordeste 53 Este 0 1005 1.3 81
2021-02-21 21:00:00 14.3 16 Nordeste 50 Este 0 1004.3 -- 82
2021-02-21 20:00:00 14.1 19 Nordeste 59 Nordeste 0 1003.6 -- 83
2021-02-21 19:00:00 14.1 21 Este 53 Este 0 1003.7 -- 83
2021-02-21 18:00:00 14 22 Este 51 Este 0 1003.7 -- 83
2021-02-21 17:00:00 14.1 19 Nordeste 49 Este 0 1004 -- 82
2021-02-21 16:00:00 14.3 15 Nordeste 46 Nordeste 0 1004.8 -- 82
2021-02-21 15:00:00 14.5 20 Este 57 Este 0 1005.2 -- 80
2021-02-21 14:00:00 14.9 19 Este 59 Este 0 1006 -- 79
2021-02-21 13:00:00 14.8 17 Este 50 Este 0 1006.8 -- 78
2021-02-21 12:00:00 14.8 17 Este 41 Este 0 1008 -- 78
2021-02-21 11:00:00 14 13 Este 34 Este 0 1008.8 -- 79
2021-02-21 10:00:00 14 11 Este 35 Este 0 1008.6 -- 76
2021-02-21 09:00:00 12.3 5 Sudeste 26 Sudoeste 0 1009.2 -- 82
2021-02-21 08:00:00 11.8 8 Sur 20 Sur 0 1009.4 -- 84
2021-02-21 07:00:00 11.6 4 Sur 14 Sur 0 1009.9 -- 85
2021-02-21 06:00:00 11.3 8 Sur 21 Sudeste 0 1010.3 -- 86
2021-02-21 05:00:00 10.7 8 Sur 20 Sudeste 0 1010.7 -- 90
2021-02-21 04:00:00 10.9 5 Sur 11 Sudoeste 0 1011.3 -- 89
2021-02-21 03:00:00 11 8 Sudoeste 13 Sur 0 1012.3 -- 91
2021-02-21 02:00:00 10.8 6 Sur 10 Sur 0 1012.6 -- 93
2021-02-21 01:00:00 10.6 6 Sur 13 Sudeste 0 1013 -- 92
2021-02-21 00:00:00 10.5 6 Sur 12 Sudeste 0 1013.6 -- 93
2021-02-20 23:00:00 10.5 6 Sur 12 Sur 0 1013.9 -- 93
2021-02-20 22:00:00 10.5 6 Sur 13 Sur 0 1014 -- 92
2021-02-20 21:00:00 10.6 6 Sur 15 Sur 0 1014.1 -- 91
2021-02-20 20:00:00 11 9 Sur 18 Sudeste 0 1014 -- 89
2021-02-20 19:00:00 11.8 9 Sudeste 24 Sudeste 0 1013.6 -- 82
2021-02-20 18:00:00 12.8 13 Sudeste 25 Sudeste 0 1013.2 -- 75
2021-02-20 17:00:00 13.7 14 Sudeste 27 Sudeste 0 1013.4 -- 70
2021-02-20 16:00:00 14.5 13 Sudeste 24 Sudeste 0 1013.8 -- 71
2021-02-20 15:00:00 14.3 13 Sudeste 23 Sudeste 0 1014.3 -- 73
2021-02-20 14:00:00 13.9 13 Sudeste 22 Sudeste 0 1014.9 -- 76
2021-02-20 13:00:00 13.4 10 Sudeste 19 Sudeste 0 1015.7 -- 79
2021-02-20 12:00:00 12.8 7 Sudeste 15 Sudeste 0 1016.1 -- 82
2021-02-20 11:00:00 11.3 5 Sudeste 11 Sudeste 0 1016.2 -- 88
2021-02-20 10:00:00 10.1 5 Sudeste 10 Sudeste 0 1016.1 -- 89
2021-02-20 09:00:00 9.4 5 Sudeste 10 Sur 0 1015.8 0.8 91
2021-02-20 08:00:00 9.3 5 Sur 11 Sur 0 1015.3 -- 92
2021-02-20 07:00:00 9.7 4 Sur 9 Sudeste 0 1015 -- 92
2021-02-20 06:00:00 9.9 5 Sur 10 Sur 0 1015 -- 93
2021-02-20 05:00:00 9.9 3 Sur 6 Sur 0 1014.8 -- 92
2021-02-20 04:00:00 9.9 3 Este 14 Sudoeste 0 1015 -0.6 92
2021-02-20 03:00:00 10.1 8 Sudoeste 13 Sudoeste 0 1015.4 -- 91
2021-02-20 02:00:00 10.1 5 Sudoeste 11 Sudoeste 0 1015.5 -- 92
2021-02-20 01:00:00 10.4 4 Sur 12 Sudeste 0 1015.6 -- 92
2021-02-20 00:00:00 10.3 6 Sudeste 10 Sudeste 0 1015.9 -- 92
2021-02-19 23:00:00 10.4 3 Sudeste 11 Sudoeste 0 1016 0.5 93
2021-02-19 22:00:00 10.3 4 Sur 13 Sudeste 0 1016 -- 93
2021-02-19 21:00:00 10.4 6 Sur 16 Sudeste 0 1015.6 -- 92
2021-02-19 20:00:00 10.2 10 Sudeste 22 Sudeste 0 1015.5 -- 92
2021-02-19 19:00:00 10.5 12 Sudeste 22 Sudeste 0 1015.1 -- 89
2021-02-19 18:00:00 12.4 12 Sudeste 23 Sur 0 1014.6 -- 82
2021-02-19 17:00:00 13.9 9 Sudeste 22 Sudeste 0 1014.6 -1.5 78
2021-02-19 16:00:00 14.7 10 Sudeste 18 Sudeste 0 1014.8 -- 76
2021-02-19 15:00:00 14.5 8 Sur 18 Sudeste 0 1015.2 -- 74
2021-02-19 14:00:00 12.5 6 Sur 15 Sudoeste 0 1016.1 -- 82
2021-02-19 13:00:00 11.2 7 Sur 11 Sur 0 1017 -- 88
2021-02-19 12:00:00 10.4 3 Sur 8 Sudoeste 0 1017.5 -- 92
2021-02-19 11:00:00 9 5 Sur 8 Sur 0 1017.7 -- 97
2021-02-19 10:00:00 7.9 0 Calma 7 Noroeste 0 1017.5 -- 99
2021-02-19 09:00:00 7.1 2 Norte 8 Oeste 0 1017.2 -- 99
2021-02-19 08:00:00 7.1 0 Calma 5 Nordeste 0 1016.3 -- 99
2021-02-19 07:00:00 7.4 3 Norte 10 Noroeste 0 1015.7 -- 99
2021-02-19 06:00:00 7.4 4 Norte 14 Noroeste 0 1015.2 -- 99
2021-02-19 05:00:00 7.6 6 Norte 13 Norte 0 1014.8 -- 96
2021-02-19 04:00:00 8.4 7 Norte 13 Norte 0 1014.8 -- 96
2021-02-19 03:00:00 9.3 5 Norte 9 Norte 0 1015 -- 93
2021-02-19 02:00:00 10.6 2 Noroeste 7 Sudoeste 0 1015.1 -- 88
2021-02-19 01:00:00 10.9 3 Sudoeste 9 Sudoeste 0 1015.3 -- 87
2021-02-19 00:00:00 11.2 2 Este 8 Sur 0 1015.6 -- 87
2021-02-18 23:00:00 11.4 0 Calma 6 Sudeste 0 1015.6 -- 86
2021-02-18 22:00:00 11.4 3 Sur 8 Sudoeste 0 1015.2 -- 85
2021-02-18 21:00:00 11.4 4 Sudoeste 8 Sudeste 0 1015 -- 85
2021-02-18 20:00:00 11.6 3 Sudeste 9 Sudeste 0 1014.4 -- 83
2021-02-18 19:00:00 12 5 Sur 13 Sur 0 1014 -- 83
2021-02-18 18:00:00 12.7 5 Sudeste 15 Sudeste 0 1013.6 -- 82
2021-02-18 17:00:00 13.7 7 Sur 15 Sudoeste 0 1013.5 -- 78
2021-02-18 16:00:00 13 8 Sudoeste 14 Sudoeste 0 1013.6 -- 79
2021-02-18 15:00:00 12.9 3 Sudoeste 8 Sur 0 1013.9 -- 76
2021-02-18 14:00:00 12.1 2 Sudeste 11 Sudoeste 0 1014.1 -- 79
2021-02-18 13:00:00 11.5 6 Sudoeste 16 Sudoeste 0 1014.8 -- 82
2021-02-18 12:00:00 10.7 7 Sudoeste 12 Sudoeste 0 1015.5 -- 86
2021-02-18 11:00:00 10.4 6 Sur 13 Sur 0 1015.6 -- 87
2021-02-18 10:00:00 9.8 6 Sur 14 Sudoeste 0 1015.6 -- 92
2021-02-18 09:00:00 9.5 4 Sur 11 Sudoeste 0 1015.5 -- 95
2021-02-18 08:00:00 9.4 8 Sudoeste 11 Sudoeste 0 1015 -- 95
2021-02-18 07:00:00 9.8 4 Sur 10 Sudoeste 0 1014.6 -- 96
2021-02-18 06:00:00 10 5 Sudoeste 9 Sudoeste 0 1014.5 -- 95
2021-02-18 05:00:00 10.3 6 Sudoeste 13 Sur 0 1014.9 -- 93
2021-02-18 04:00:00 10.6 4 Sur 7 Sur 0 1015 -- 94
2021-02-18 03:00:00 10.6 3 Noroeste 8 Sudoeste 0 1015.3 -- 93
2021-02-18 02:00:00 10.9 4 Sudeste 7 Sur 0 1015.8 -- 93
2021-02-18 01:00:00 11 6 Sur 9 Sur 0 1016.3 -- 94
2021-02-18 00:00:00 11.1 0 Calma 8 Sur 0 1016.5 -- 93
2021-02-17 23:00:00 11.1 3 Sudeste 8 Sur 0 1016.8 -- 94
2021-02-17 22:00:00 11 4 Sur 11 Sur 0 1016.9 -- 94
2021-02-17 21:00:00 10.9 5 Sur 15 Sudeste 0 1017.1 -- 94
2021-02-17 20:00:00 11 8 Sudeste 15 Sudeste 0 1016.8 -- 93
2021-02-17 19:00:00 11.9 9 Sur 15 Sur 0 1016.8 -- 89
2021-02-17 18:00:00 13.5 8 Sur 22 Sur 0 1016.6 -- 82
2021-02-17 17:00:00 14.8 12 Sur 23 Sudeste 0 1016.7 -- 78
2021-02-17 16:00:00 16.8 13 Sur 21 Sudeste 0 1016.9 -- 70
2021-02-17 15:00:00 17.3 12 Sudeste 19 Sur 0 1017.5 -- 69
2021-02-17 14:00:00 18.4 6 Sur 15 Sur 0 1018.3 -- 65
2021-02-17 13:00:00 16.6 5 Sur 10 Este 0 1019.3 -- 69
2021-02-17 12:00:00 14.8 7 Sur 11 Sur 0 1020.2 -- 77
2021-02-17 11:00:00 11.9 3 Sur 5 Sur 0 1020.5 -- 91
2021-02-17 10:00:00 10 2 Norte 5 Noroeste 0 1020.5 -- 98
2021-02-17 09:00:00 8.3 3 Norte 6 Norte 0 1020.5 -- 99
2021-02-17 08:00:00 7.3 3 Norte 8 Norte 0 1020.2 -- 99
2021-02-17 07:00:00 7.5 4 Noroeste 6 Noroeste 0 1019.8 -- 99
2021-02-17 06:00:00 7 4 Norte 7 Norte 0 1019.7 -- 99
2021-02-17 05:00:00 6.7 5 Nordeste 6 Norte 0 1019.5 -- 98
2021-02-17 04:00:00 6.9 0 Calma 3 Sur 0 1019.6 -- 96
2021-02-17 03:00:00 7.2 2 Sudeste 7 Noroeste 0 1019.6 -- 97
2021-02-17 02:00:00 7.5 0 Calma 5 Noroeste 0 1019.6 -- 98
2021-02-17 01:00:00 7.7 0 Calma 9 Norte 0 1019.7 -- 97
2021-02-17 00:00:00 7.8 6 Norte 12 Norte 0 1019.7 -- 96
2021-02-16 23:00:00 8.2 6 Noroeste 9 Noroeste 0 1019.9 -- 94
2021-02-16 22:00:00 9.2 2 Este 5 Sudeste 0 1019.7 -- 92
2021-02-16 21:00:00 10 4 Sudeste 9 Sudeste 0 1019.6 -- 90
2021-02-16 20:00:00 10.7 5 Sur 10 Sur 0 1019.7 -- 87
2021-02-16 19:00:00 12.3 5 Sur 13 Sudeste 0 1019.5 -- 82
2021-02-16 18:00:00 14.4 8 Sudeste 18 Sudeste 0 1019.2 -- 70
2021-02-16 17:00:00 16.4 8 Sudeste 18 Sudeste 0 1019.4 -- 63
2021-02-16 16:00:00 17.8 8 Sudeste 17 Sudeste 0 1019.8 -- 59
2021-02-16 15:00:00 17.6 9 Sudeste 16 Sudeste 0 1020.6 -- 58
2021-02-16 14:00:00 17.9 4 Sur 15 Sudeste 0 1021.5 -- 59
2021-02-16 13:00:00 17 5 Sur 17 Sur 0 1022.6 -- 61
2021-02-16 12:00:00 16.3 9 Sur 23 Sudoeste 0 1023.5 -- 64
2021-02-16 11:00:00 14.2 5 Sudeste 13 Sudeste 0 1023.5 -- 76
2021-02-16 10:00:00 10.9 5 Sur 10 Sur 0 1023.5 -- 90
2021-02-16 09:00:00 8.9 2 Sur 10 Sur 0 1023.6 -- 96
2021-02-16 08:00:00 8.4 5 Sur 9 Sur 0 1023.5 -- 98
2021-02-16 07:00:00 9.4 5 Sur 14 Sudeste 0 1023.7 -- 97
2021-02-16 06:00:00 10.3 6 Sur 10 Sudeste 0 1024.1 -- 98
2021-02-16 05:00:00 10.5 4 Sur 14 Sur 0 1024.6 -- 97
2021-02-16 04:00:00 10.6 9 Sudeste 17 Sur 0 1025.1 -- 98
2021-02-16 03:00:00 10.6 10 Sur 16 Sur 0 1025.8 -- 98
2021-02-16 02:00:00 10.6 9 Sur 17 Sur 0 1026.4 -- 97
2021-02-16 01:00:00 10.6 9 Sur 17 Sudeste 0 1027.3 -- 97
2021-02-16 00:00:00 10.6 10 Sur 18 Sudeste 0 1027.6 -- 97
2021-02-15 23:00:00 10.7 13 Sur 23 Sur 0 1027.9 -- 97
2021-02-15 22:00:00 10.6 11 Sur 18 Sur 0 1028.1 -- 98
2021-02-15 21:00:00 10.6 10 Sudeste 19 Sudeste 0 1028.3 -- 99
2021-02-15 20:00:00 10.5 8 Sudeste 13 Sur 0 1028.4 -- 99
2021-02-15 19:00:00 10.7 7 Sur 12 Sur 0 1028.5 -- 99
2021-02-15 18:00:00 10.5 5 Sur 14 Sudoeste 0 1028.5 -- 98
2021-02-15 17:00:00 10.3 5 Sudoeste 12 Sudoeste 0 1028.7 -- 97
2021-02-15 16:00:00 10.5 6 Sur 18 Sudeste 0 1029.3 -- 96
2021-02-15 15:00:00 10.8 9 Sudeste 23 Sudeste 0 1029.7 -- 98
2021-02-15 14:00:00 10.6 12 Sudeste 23 Sudeste 0.2 1030.2 -- 98
2021-02-15 13:00:00 10.6 7 Sudeste 15 Sudeste 0.2 1030.7 -- 98
2021-02-15 12:00:00 10.2 8 Sudeste 14 Sudeste 0 1031.2 -- 99
2021-02-15 11:00:00 9.8 8 Sudeste 14 Sudeste 0 1031.2 -- 100
2021-02-15 10:00:00 9.4 8 Sudeste 16 Sudeste 0.2 1031.2 -- 100
2021-02-15 09:00:00 8.9 8 Sudeste 13 Sudeste 0.2 1030.8 -- 100
2021-02-15 08:00:00 8.8 7 Sudeste 12 Sudeste 0 1030.3 -- 100
2021-02-15 07:00:00 8.7 7 Sudeste 19 Sur 0.2 1030.1 -- 100
2021-02-15 06:00:00 8.6 8 Sudeste 13 Sudeste 0.4 1030.1 -- 100
2021-02-15 05:00:00 8.6 7 Sur 15 Sur 0.2 1030.5 -- 99
2021-02-15 04:00:00 8.5 6 Sur 11 Sur 0 1030.8 -- 99
2021-02-15 03:00:00 8.6 6 Sur 10 Sur 0.4 1031.2 -- 99
2021-02-15 02:00:00 8.6 5 Sur 9 Sur 0.4 1031.3 -- 99
2021-02-15 01:00:00 8.6 4 Sur 11 Sur 0 1031.4 -- 98
2021-02-15 00:00:00 8.6 5 Sur 12 Sudoeste 0.2 1031.4 -- 97
2021-02-14 23:00:00 8.6 9 Sudoeste 19 Sudoeste 0 1031.4 -- 94
2021-02-14 22:00:00 8.7 10 Oeste 17 Oeste 0 1031.4 -- 96
2021-02-14 21:00:00 8.7 6 Sudoeste 14 Sur 0 1031.1 -- 96
2021-02-14 20:00:00 8.9 5 Sur 18 Sudeste 0 1031 -- 97
2021-02-14 19:00:00 9.3 8 Sudeste 19 Sudeste 0.2 1030.5 1 97
2021-02-14 18:00:00 9.3 8 Sur 18 Sur 0 1030.2 1.1 95
2021-02-14 17:00:00 9.7 8 Sudeste 26 Sudeste 0 1029.8 -- 94
2021-02-14 16:00:00 10.3 5 Sudeste 19 Este 0.2 1029.5 -- 94
2021-02-14 15:00:00 10.5 8 Sudeste 18 Este 0 1029.1 -- 91
2021-02-14 14:00:00 10.6 5 Este 12 Sudeste 0 1028.9 -- 92
2021-02-14 13:00:00 10.4 5 Sudoeste 10 Sudoeste 0.2 1029.1 -- 95
2021-02-14 12:00:00 10.1 8 Sudoeste 19 Sudoeste 0.2 1029.4 -- 95
2021-02-14 11:00:00 10.1 7 Sur 18 Sur 0.4 1028.7 -- 93
2021-02-14 10:00:00 9.7 7 Oeste 14 Sur 0.2 1027.8 -- 96
2021-02-14 09:00:00 8.6 4 Norte 15 Este 0.8 1026.8 -- 100
2021-02-14 08:00:00 6.7 7 Norte 11 Norte 0 1025.9 -- 91
2021-02-14 07:00:00 6.4 3 Norte 11 Noroeste 0 1025 -- 91
2021-02-14 06:00:00 6.3 9 Norte 13 Noroeste 0 1024.3 -- 91
2021-02-14 05:00:00 7.2 9 Noroeste 13 Norte 0 1023.7 -- 89
2021-02-14 04:00:00 8.1 8 Noroeste 10 Noroeste 0 1023.4 -- 93
2021-02-14 03:00:00 8.5 5 Nordeste 9 Nordeste 0 1023.3 -- 93
2021-02-14 02:00:00 9.8 6 Sudoeste 16 Sudoeste 0 1022.8 -- 94
2021-02-14 01:00:00 9.8 9 Sudoeste 14 Sudoeste 0 1022.2 -- 91
2021-02-14 00:00:00 10.5 8 Sudoeste 13 Oeste 0 1021.8 -- 79
2021-02-13 23:00:00 12.6 2 Noroeste 8 Norte 0 1021.5 -- 58
2021-02-13 22:00:00 13.3 7 Norte 11 Oeste 0 1021.1 -- 57
2021-02-13 21:00:00 14.6 4 Nordeste 13 Este 0 1020.6 -- 55
2021-02-13 20:00:00 15.5 4 Noroeste 22 Noroeste 0 1019.9 -- 52
2021-02-13 19:00:00 16.3 12 Noroeste 24 Oeste 0 1018.9 -- 48
2021-02-13 18:00:00 16.2 8 Noroeste 21 Noroeste 0 1018.1 -- 48
2021-02-13 17:00:00 17.2 3 Noroeste 17 Noroeste 0 1018.1 -- 46
2021-02-13 16:00:00 18.1 9 Noroeste 20 Noroeste 0 1018.1 -- 44
2021-02-13 15:00:00 19.3 6 Noroeste 26 Oeste 0 1018.1 -- 41
2021-02-13 14:00:00 20.5 10 Oeste 26 Noroeste 0 1018 -- 36
2021-02-13 13:00:00 19.6 9 Oeste 25 Oeste 0 1018.2 -- 38
2021-02-13 08:00:00 13.8 21 Noroeste 49 Noroeste 0 1016.6 2 53
2021-02-13 07:00:00 13.5 15 Noroeste 54 Norte 0 1016.1 0.2 58
2021-02-13 06:00:00 13.3 18 Noroeste 63 Noroeste 0 1015.6 0.1 59
2021-02-13 05:00:00 13.2 28 Noroeste 56 Noroeste 0 1014.6 -0.2 60
2021-02-13 04:00:00 13.3 19 Noroeste 42 Norte 0 1015.9 2.3 61
2021-02-13 03:00:00 13.3 13 Norte 37 Norte 0 1015.5 4 61
2021-02-13 02:00:00 14.1 5 Sur 37 Noroeste 0 1014.8 3.9 56
2021-02-13 01:00:00 14.5 17 Noroeste 66 Noroeste 0 1013.6 2.8 55
2021-02-13 00:00:00 14.8 28 Noroeste 81 Noroeste 0 1011.5 0.8 54
2021-02-12 23:00:00 15.4 43 Noroeste 84 Noroeste 0 1010.9 -0.2 53
2021-02-12 22:00:00 15.3 32 Noroeste 75 Noroeste 0 1010.8 1.2 55
2021-02-12 21:00:00 15.5 25 Noroeste 69 Oeste 0 1010.7 1.2 56
2021-02-12 20:00:00 15.7 17 Noroeste 49 Oeste 0 1011.1 1.1 56
2021-02-12 19:00:00 15.7 27 Oeste 63 Noroeste 0 1009.6 -0.7 56
2021-02-12 18:00:00 14.8 16 Noroeste 52 Oeste 0 1009.5 0 66
2021-02-12 17:00:00 15.6 17 Noroeste 37 Norte 0 1010 1.4 60
2021-02-12 16:00:00 15.9 17 Noroeste 50 Noroeste 0 1010.3 0.1 61
2021-02-12 15:00:00 17.8 18 Noroeste 51 Noroeste 0 1009.5 -2 54
2021-02-12 14:00:00 19 18 Norte 47 Norte 0 1008.6 -1.7 57
2021-02-12 13:00:00 15 6 Norte 21 Nordeste 0.2 1010.2 -0.1 91
2021-02-12 12:00:00 13.9 7 Norte 15 Noroeste 1.6 1011.5 1.1 88
2021-02-12 11:00:00 15.4 5 Sudeste 15 Sudeste 0 1010.3 0 73
2021-02-12 10:00:00 10.9 4 Sur 9 Noroeste 0 1010.3 -0.2 86
2021-02-12 09:00:00 10 5 Norte 11 Norte 0 1010.4 -- 90
2021-02-12 08:00:00 10.3 3 Norte 15 Noroeste 0 1010.3 -- 88
2021-02-12 07:00:00 9.5 9 Norte 19 Noroeste 0 1010.5 -- 89
2021-02-12 06:00:00 9.3 5 Noroeste 13 Noroeste 0 1011.4 -- 88
2021-02-12 05:00:00 9.2 8 Noroeste 11 Noroeste 0 1011.2 -- 87
2021-02-12 04:00:00 9.4 5 Sudoeste 13 Sur 0 1011.7 -- 85
2021-02-12 03:00:00 9.5 3 Oeste 11 Oeste 0 1011.9 -- 85
2021-02-12 02:00:00 9.1 3 Nordeste 8 Norte 0 1012.4 -- 84
2021-02-12 01:00:00 9.4 4 Norte 13 Noroeste 0 1012.4 -- 83
2021-02-12 00:00:00 9.9 8 Noroeste 12 Noroeste 0 1012.7 -- 81
2021-02-11 23:00:00 11 8 Oeste 12 Noroeste 0 1013.3 -- 76
2021-02-11 22:00:00 11.5 3 Noroeste 8 Este 0 1013.1 -- 74
2021-02-11 21:00:00 13 3 Noroeste 9 Noroeste 0 1012.8 -- 68
2021-02-11 20:00:00 14.1 4 Noroeste 9 Noroeste 0 1012.6 -- 61
2021-02-11 19:00:00 15.9 4 Sudoeste 10 Sudoeste 0 1012.3 -- 51
2021-02-11 18:00:00 18.4 4 Sur 11 Sur 0 1011.8 -- 47
2021-02-11 17:00:00 20.2 4 Sur 17 Sudeste 0 1011.3 -- 40
2021-02-11 16:00:00 20.5 6 Sudeste 21 Sudeste 0 1011.7 -- 40
2021-02-11 15:00:00 21.1 13 Sudeste 29 Sur 0 1011.5 -- 36
2021-02-11 14:00:00 21.7 13 Sur 22 Sur 0 1011.9 -- 40
2021-02-11 13:00:00 19.7 8 Sur 18 Sur 0 1012.5 -- 42
2021-02-11 12:00:00 18.5 6 Sur 13 Sur 0 1013.1 -- 42
2021-02-11 11:00:00 15.3 3 Sudoeste 8 Norte 0 1013.1 -- 52
2021-02-11 10:00:00 14.4 3 Sur 22 Oeste 0 1013.1 -- 48
2021-02-11 09:00:00 8.7 4 Sudeste 12 Sur 0 1012.7 -- 75
2021-02-11 08:00:00 7.4 4 Sur 9 Noroeste 0 1012.1 -- 78
2021-02-11 07:00:00 7.6 3 Este 11 Sudoeste 0 1012.2 -- 75
2021-02-11 06:00:00 7.3 5 Norte 11 Norte 0 1012 -- 76
2021-02-11 05:00:00 7.8 5 Sudoeste 13 Oeste 0 1011.8 -- 71
2021-02-11 04:00:00 8.5 5 Sudoeste 13 Noroeste 0 1011.9 -- 69
2021-02-11 03:00:00 9.6 4 Nordeste 13 Noroeste 0 1012.2 -- 63
2021-02-11 02:00:00 10.8 7 Noroeste 16 Noroeste 0 1011.9 -- 59
2021-02-11 01:00:00 11.1 4 Oeste 14 Sudoeste 0 1011.8 -- 56
2021-02-11 00:00:00 12.3 10 Norte 32 Nordeste 0 1010.6 -- 53
2021-02-10 23:00:00 11.3 11 Norte 20 Norte 0 1010.2 -- 57
2021-02-10 22:00:00 11.4 6 Norte 15 Norte 0 1010.3 -- 55
2021-02-10 21:00:00 12.4 8 Norte 15 Noroeste 0 1009.3 -- 53
2021-02-10 20:00:00 13.8 8 Noroeste 29 Noroeste 0 1008.3 -- 48
2021-02-10 19:00:00 14.5 13 Noroeste 33 Norte 0 1007.1 -- 46
2021-02-10 18:00:00 15.4 10 Norte 41 Norte 0 1006.1 -- 45
2021-02-10 17:00:00 16.5 22 Noroeste 54 Norte 0 1005.3 -- 40
2021-02-10 16:00:00 17 19 Noroeste 56 Noroeste 0 1004.3 -- 40
2021-02-10 15:00:00 16.7 25 Noroeste 67 Noroeste 0 1002.9 -- 38
2021-02-10 14:00:00 16.2 22 Noroeste 70 Oeste 0 1002.5 -- 43
2021-02-10 13:00:00 15.5 29 Noroeste 68 Noroeste 0 1001.6 -- 46
2021-02-10 12:00:00 15.3 29 Noroeste 87 Noroeste 0 1000.1 -- 46
2021-02-10 11:00:00 14.4 28 Noroeste 80 Oeste 0 999.2 -- 48
2021-02-10 10:00:00 10.9 18 Noroeste 48 Noroeste 0 998.8 -- 61
2021-02-10 09:00:00 8.7 9 Norte 26 Norte 0.2 998 -- 89
2021-02-10 08:00:00 8.5 12 Norte 24 Noroeste 0.2 998.6 -- 95
2021-02-10 07:00:00 8 8 Norte 17 Norte 0.2 997.2 -- 91
2021-02-10 06:00:00 7.8 3 Norte 9 Noroeste 0 997.5 -- 85
2021-02-10 05:00:00 8.6 3 Sudeste 11 Noroeste 0 997.7 -- 79
2021-02-10 04:00:00 9.9 7 Oeste 14 Oeste 0 997.6 -- 72
2021-02-10 03:00:00 10.7 5 Este 15 Norte 0 998 -- 71
2021-02-10 02:00:00 11.9 5 Norte 19 Noroeste 0 997.9 -- 61
2021-02-10 01:00:00 11.5 10 Norte 28 Norte 0 998.4 -- 66
2021-02-10 00:00:00 10.9 12 Norte 23 Norte 0 997.7 -- 69
2021-02-09 23:00:00 9.7 6 Noroeste 14 Norte 0 997.7 -- 82
2021-02-09 22:00:00 10.9 2 Sur 16 Norte 0 997.2 -- 80
2021-02-09 21:00:00 11.3 9 Noroeste 15 Nordeste 0 996.9 -- 83
2021-02-09 20:00:00 12.5 5 Noroeste 19 Sudeste 0 996.2 -- 77
2021-02-09 19:00:00 13.3 4 Norte 27 Sur 0.2 997 -- 81
2021-02-09 18:00:00 14.7 17 Sur 32 Sur 0 995.5 -- 63
2021-02-09 17:00:00 16.4 16 Sur 30 Sur 0 995.7 -- 58
2021-02-09 16:00:00 16.3 18 Sur 41 Sur 0 996.5 -- 60
2021-02-09 15:00:00 14.4 22 Sur 37 Sur 0 997.5 -- 62
2021-02-09 14:00:00 14 11 Sur 21 Sur 0 998.6 -- 59
2021-02-09 13:00:00 12.9 4 Sur 12 Sudeste 0 999.7 -- 69
2021-02-09 12:00:00 12.2 5 Este 10 Este 0 1000.9 -- 68
2021-02-09 11:00:00 11.9 5 Sudoeste 8 Oeste 0 1001.1 -- 72
2021-02-09 10:00:00 11.1 3 Noroeste 6 Este 0 1001.5 -- 73
2021-02-09 09:00:00 11 6 Sudeste 12 Oeste 0 1001.6 -- 65
2021-02-09 08:00:00 10.9 5 Este 13 Sur 0 1001.7 -- 64
2021-02-09 07:00:00 11.6 4 Este 7 Este 0 1001.4 -- 57
2021-02-09 06:00:00 13.1 5 Sudeste 32 Sudoeste 0 1001 -- 52
2021-02-09 05:00:00 13.8 9 Noroeste 41 Noroeste 0 1000.6 -- 49
2021-02-09 04:00:00 14.2 21 Oeste 53 Oeste 0 1000.5 -- 48
2021-02-09 03:00:00 13.8 13 Noroeste 52 Noroeste 0 999.4 -- 46
2021-02-09 02:00:00 14 17 Noroeste 46 Oeste 0 999.8 -- 46
2021-02-09 01:00:00 14 23 Noroeste 65 Oeste 0 999.3 -- 47
2021-02-09 00:00:00 14 21 Oeste 57 Oeste 0 998.7 -- 46
2021-02-08 23:00:00 14 25 Oeste 57 Noroeste 0 998.5 -- 48
2021-02-08 22:00:00 14 14 Noroeste 55 Oeste 0 997.8 -- 51
2021-02-08 21:00:00 13.5 4 Norte 26 Noroeste 0 997.2 -- 50
2021-02-08 20:00:00 13.7 6 Noroeste 31 Sur 0 996.5 -- 51
2021-02-08 19:00:00 13.5 7 Noroeste 27 Noroeste 0 995.7 -- 53
2021-02-08 18:00:00 14.4 16 Noroeste 32 Noroeste 0 995.2 -- 63
2021-02-08 17:00:00 15.9 14 Oeste 34 Noroeste 0 994.1 -- 56
2021-02-08 16:00:00 16.6 8 Sur 16 Sur 0 993.9 -- 64
2021-02-08 15:00:00 14 4 Nordeste 12 Nordeste 0 993.6 -- 67
2021-02-08 14:00:00 14.8 4 Norte 14 Norte 0 993.9 -- 61
2021-02-08 13:00:00 9.9 10 Nordeste 24 Noroeste 0.4 995 -- 93
2021-02-08 12:00:00 9 3 Norte 13 Oeste 0.2 996.4 -- 94
2021-02-08 11:00:00 7.9 5 Noroeste 13 Nordeste 0 995.4 -- 94
2021-02-08 10:00:00 7.1 6 Norte 10 Nordeste 0.2 996.2 -- 94
2021-02-08 09:00:00 6.9 5 Norte 7 Norte 0 995.7 -- 89
2021-02-08 08:00:00 6.6 3 Norte 8 Este 0 996.1 -- 82
2021-02-08 07:00:00 6.6 5 Sudeste 15 Norte 0 996.1 -- 84
2021-02-08 06:00:00 6.8 6 Norte 15 Noroeste 0 996.3 -- 79
2021-02-08 05:00:00 6.4 10 Noroeste 17 Noroeste 0 996.9 -- 80
2021-02-08 04:00:00 6.3 5 Norte 10 Norte 0 997.2 -- 83
2021-02-08 03:00:00 7 3 Oeste 11 Sur 0 997.7 -- 80
2021-02-08 02:00:00 7.6 0 Calma 9 Oeste 0 998 -- 76
2021-02-08 01:00:00 7.9 4 Sudeste 11 Oeste 0 998.5 -- 74
2021-02-08 00:00:00 8.2 2 Noroeste 8 Noroeste 0 998.9 -- 67
2021-02-07 23:00:00 8.5 5 Norte 9 Norte 0 999.4 -- 75
2021-02-07 22:00:00 9.3 4 Noroeste 8 Noroeste 0 999.7 -- 69
2021-02-07 21:00:00 10 6 Sur 10 Sudoeste 0 999.7 -- 66
2021-02-07 20:00:00 10.8 4 Sur 10 Sudoeste 0 999.5 -- 56
2021-02-07 19:00:00 12.2 5 Norte 15 Noroeste 0 999.3 -- 48
2021-02-07 18:00:00 13.3 5 Oeste 20 Oeste 0 999 -- 41
2021-02-07 17:00:00 13.1 4 Oeste 30 Oeste 0 999 -- 46
2021-02-07 16:00:00 13.7 14 Noroeste 33 Oeste 0 998.7 -- 42
2021-02-07 15:00:00 15.1 13 Oeste 35 Oeste 0 998.8 -- 40
2021-02-07 14:00:00 15.9 15 Oeste 36 Oeste 0 999 -- 38
2021-02-07 13:00:00 14.8 17 Noroeste 50 Noroeste 0 999.4 -- 40
2021-02-07 12:00:00 13.7 21 Noroeste 52 Oeste 0 999.7 -- 43
2021-02-07 11:00:00 12.9 12 Noroeste 54 Oeste 0 999.8 -- 45
2021-02-07 10:00:00 11.3 21 Noroeste 55 Noroeste 0 999.5 -- 49
2021-02-07 09:00:00 9.5 15 Noroeste 46 Norte 0 999.4 -- 52
2021-02-07 08:00:00 9.7 16 Noroeste 39 Noroeste 0 999 -- 52
2021-02-07 07:00:00 9.7 13 Norte 34 Noroeste 0 998.6 -- 54
2021-02-07 06:00:00 9.9 15 Norte 41 Noroeste 0 998.9 -- 55
2021-02-07 05:00:00 10.2 11 Norte 57 Noroeste 0 999.2 -- 57
2021-02-07 04:00:00 10.4 15 Noroeste 46 Noroeste 0 998.8 -- 57
2021-02-07 03:00:00 10.3 15 Noroeste 41 Noroeste 0 998.9 -- 61
2021-02-07 02:00:00 10.5 18 Noroeste 58 Noroeste 0 998.9 -- 61
2021-02-07 01:00:00 10.9 15 Noroeste 42 Noroeste 0 998.8 -- 61
2021-02-07 00:00:00 10.8 18 Noroeste 39 Norte 0 998.4 -- 67
2021-02-06 23:00:00 10.5 12 Norte 35 Norte 0 998.4 -- 77
2021-02-06 22:00:00 10.7 14 Norte 31 Noroeste 0 998.2 -- 80
2021-02-06 21:00:00 11.3 14 Noroeste 37 Norte 0 998.2 -- 84
2021-02-06 20:00:00 10.8 10 Norte 45 Noroeste 1.2 997.9 -- 95
2021-02-06 19:00:00 12.1 18 Oeste 36 Noroeste 0.2 997.1 -- 81
2021-02-06 18:00:00 13.2 7 Oeste 13 Sudoeste 0.4 995.8 -- 91
2021-02-06 17:00:00 14.7 4 Noroeste 14 Oeste 0.4 995.6 -- 85
2021-02-06 16:00:00 17.2 4 Oeste 13 Oeste 0 995.5 -- 69
2021-02-06 15:00:00 17.8 7 Noroeste 17 Noroeste 0 995.2 -- 63
2021-02-06 14:00:00 20.4 5 Este 14 Este 0 995.7 -- 50
2021-02-06 13:00:00 19.4 5 Este 16 Este 0 996.4 -- 52
2021-02-06 12:00:00 18.4 6 Sudeste 11 Sudeste 0 997.1 -- 59
2021-02-06 11:00:00 16.7 3 Sudeste 9 Sur 0 997.1 -- 66
2021-02-06 10:00:00 13.1 3 Norte 9 Norte 0 996.9 -- 82
2021-02-06 09:00:00 10.7 3 Sudeste 13 Noroeste 0 996.9 -- 88
2021-02-06 08:00:00 10.8 7 Norte 17 Norte 0 995.8 -- 88
2021-02-06 07:00:00 10.9 8 Norte 14 Norte 0 995.7 -- 90
2021-02-06 06:00:00 11.5 8 Noroeste 14 Oeste 0 995.8 -- 87
2021-02-06 05:00:00 11.9 3 Norte 7 Este 0 996.2 -- 87
2021-02-06 04:00:00 12.5 4 Noroeste 7 Noroeste 0 996.8 -- 85
2021-02-06 03:00:00 12.4 6 Norte 16 Sudoeste 0 997.6 -- 86
2021-02-06 02:00:00 12.1 6 Sudoeste 12 Sudoeste 0 999.3 -- 89
2021-02-06 01:00:00 12.2 7 Sur 14 Sudoeste 0 999.9 -- 89
2021-02-06 00:00:00 12.3 7 Sur 16 Sudoeste 0 1000.3 -- 87
2021-02-05 23:00:00 12.7 10 Sudoeste 18 Sudoeste 0 1000.9 -- 85
2021-02-05 22:00:00 13 8 Sur 17 Sudoeste 0 1001.8 -- 85
2021-02-05 21:00:00 13.1 6 Sudeste 11 Este 0 1002 -- 83
2021-02-05 20:00:00 13 4 Sur 12 Sudoeste 0 1002.2 -- 83
2021-02-05 19:00:00 13.1 7 Sudoeste 17 Este 0 1002.8 -- 83
2021-02-05 18:00:00 13.4 7 Sudeste 19 Sudeste 0 1002.6 -- 81
2021-02-05 17:00:00 14 6 Este 22 Este 0 1002.9 -- 79
2021-02-05 16:00:00 14.1 8 Este 23 Este 0 1003.1 -- 77
2021-02-05 15:00:00 13.8 11 Este 30 Este 0 1003.8 -- 79
2021-02-05 14:00:00 13.7 4 Este 16 Este 0 1004.6 -- 78
2021-02-05 13:00:00 13.4 6 Este 23 Este 0 1006.2 -- 82
2021-02-05 12:00:00 13.4 6 Sudeste 16 Este 0 1006.7 -- 82
2021-02-05 11:00:00 12.5 5 Sudeste 13 Sur 0 1006.9 -- 89
2021-02-05 10:00:00 12.3 6 Sudoeste 11 Sur 0 1006.6 -- 89
2021-02-05 09:00:00 12 8 Sur 15 Sudoeste 0 1006.5 -- 88
2021-02-05 08:00:00 11.6 7 Sudoeste 10 Sudoeste 0 1006.2 -- 88
2021-02-05 07:00:00 11.6 5 Sudoeste 9 Sudoeste 0 1006.1 -- 88
2021-02-05 06:00:00 11.6 0 Calma 6 Este 0 1006.3 -- 88
2021-02-05 05:00:00 11.8 2 Sudeste 17 Sur 0 1006.6 -- 87
2021-02-05 04:00:00 11.5 11 Sur 20 Sur 0 1007.6 -- 89
2021-02-05 03:00:00 11.4 3 Sudoeste 6 Sudeste 0 1006.9 -- 88
2021-02-05 02:00:00 11.9 2 Oeste 6 Oeste 0 1007.5 -- 87
2021-02-05 01:00:00 12 5 Oeste 9 Sur 0 1008 -- 88
2021-02-05 00:00:00 12 7 Sudoeste 12 Sur 0 1008.2 -- 87
2021-02-04 23:00:00 12.2 6 Sur 11 Sur 0 1007.9 -- 88
2021-02-04 22:00:00 12.1 6 Sudeste 13 Sudeste 0 1008 -- 88
2021-02-04 21:00:00 12.1 6 Sudeste 15 Sur 0 1007.6 -- 88
2021-02-04 20:00:00 12.2 9 Sudeste 17 Sudeste 0 1007.5 -- 87
2021-02-04 19:00:00 12.8 9 Sudeste 18 Sudeste 0 1006.9 -- 84
2021-02-04 18:00:00 13.3 10 Sudeste 23 Sur 0 1006.4 -- 83
2021-02-04 17:00:00 14 13 Sudeste 27 Sur 0 1006.3 -- 81
2021-02-04 16:00:00 15.9 15 Sur 28 Sudeste 0 1006.3 -- 71
2021-02-04 15:00:00 17.8 10 Sur 23 Sur 0 1006.6 -- 66
2021-02-04 14:00:00 17 9 Sudeste 23 Sudeste 0 1007 -- 71
2021-02-04 13:00:00 16.4 14 Sudeste 26 Sudeste 0 1007.7 -- 71
2021-02-04 12:00:00 18.4 15 Sudeste 24 Sudeste 0 1008.6 -- 66
2021-02-04 11:00:00 16.2 8 Sur 13 Sur 0 1009 -- 74
2021-02-04 10:00:00 11.5 2 Este 6 Sudeste 0 1009.2 -- 83
2021-02-04 09:00:00 9.2 3 Este 11 Noroeste 0 1008.7 -- 90
2021-02-04 08:00:00 8.5 4 Norte 9 Noroeste 0 1008.4 -- 91
2021-02-04 07:00:00 9.2 7 Noroeste 9 Noroeste 0 1008.3 -- 92
2021-02-04 06:00:00 9.5 5 Noroeste 8 Norte 0 1008.3 -- 91
2021-02-04 05:00:00 9.6 2 Norte 5 Sudoeste 0 1008.3 -- 90
2021-02-04 04:00:00 9.8 3 Nordeste 9 Oeste 0 1008.3 -- 89
2021-02-04 03:00:00 10.2 3 Sur 5 Este 0 1008.7 -- 87
2021-02-04 02:00:00 10.7 3 Norte 9 Norte 0 1009 -- 85
2021-02-04 01:00:00 10.9 5 Norte 9 Norte 0 1009.1 -- 84
2021-02-04 00:00:00 11.3 3 Norte 6 Noroeste 0 1009.2 -- 83